SIA26 WSSS-EDDF
Flight info
| Callsign | SIA26 |
|---|---|
| Flight time | N/A |
| Altitude | 30000 |
| Route | AROSO5B AROSO Y513 KALIL Y501 RINBA Y503 VPL P628 PPB/N0509F320 P628 NOKOK/N0493F340 P628 RK G202 ZB L750 RANAH A846 RUBAD B475 DOLOS B449 MAMED P130 BODKA M747 SULEL N449 TELLI/N0484F360 DCT INDUR UN161 ELTOX DCT ERZ UL746 ODERO DCT OPT DCT DEGET DCT ALAMU DCT TOVKA DCT DITIS DCT RAPET T170 VAGAB DCT GAPLA/N0455F240 T178 KERAX KERAX5A |
| Aircraft | B77W/H-SDE1E2E3FGHIJ4J5M1P2RWXYZ/LB1D1 |
Departure
| Time | N/A |
|---|---|
| Airport | Singapore Changi Airport (WSSS) |
Arrival
| Time | 2026-04-17 11:23 |
|---|---|
| Airport | Frankfurt Main Airport (EDDF) |
| Time | Latitude | Longitude | Altitude | Speed | Heading |
|---|---|---|---|---|---|
| 2026-04-17 10:50 | 49.90419 | 12.97953 | 36242 ft | 436 kts | 306° |
| 2026-04-17 10:50 | 49.93748 | 12.90579 | 36264 ft | 436 kts | 306° |
| 2026-04-17 10:51 | 49.97225 | 12.82859 | 36237 ft | 436 kts | 306° |
| 2026-04-17 10:51 | 50.00676 | 12.75173 | 36252 ft | 436 kts | 306° |
| 2026-04-17 10:52 | 50.04140 | 12.67434 | 36256 ft | 436 kts | 306° |
| 2026-04-17 10:52 | 50.07440 | 12.60042 | 36257 ft | 436 kts | 306° |
| 2026-04-17 10:53 | 50.10966 | 12.52118 | 36249 ft | 437 kts | 306° |
| 2026-04-17 10:53 | 50.14349 | 12.44497 | 36227 ft | 437 kts | 306° |
| 2026-04-17 10:54 | 50.17764 | 12.36609 | 36243 ft | 438 kts | 302° |
| 2026-04-17 10:54 | 50.20446 | 12.28060 | 36249 ft | 440 kts | 292° |
| 2026-04-17 10:55 | 50.22491 | 12.19030 | 36244 ft | 441 kts | 292° |
| 2026-04-17 10:55 | 50.24538 | 12.09981 | 36266 ft | 442 kts | 292° |
| 2026-04-17 10:56 | 50.26606 | 12.00938 | 36257 ft | 442 kts | 292° |
| 2026-04-17 10:56 | 50.28684 | 11.91879 | 36269 ft | 442 kts | 292° |
| 2026-04-17 10:57 | 50.30734 | 11.82932 | 36263 ft | 442 kts | 292° |
| 2026-04-17 10:57 | 50.32804 | 11.73855 | 36268 ft | 442 kts | 292° |
| 2026-04-17 10:58 | 50.34896 | 11.64632 | 36266 ft | 442 kts | 292° |
| 2026-04-17 10:58 | 50.36910 | 11.55715 | 36249 ft | 442 kts | 292° |
| 2026-04-17 10:59 | 50.38954 | 11.46630 | 36256 ft | 442 kts | 292° |
| 2026-04-17 10:59 | 50.40991 | 11.37542 | 36234 ft | 442 kts | 291° |
| 2026-04-17 11:00 | 50.43010 | 11.28481 | 36245 ft | 442 kts | 291° |
| 2026-04-17 11:00 | 50.45030 | 11.19362 | 36233 ft | 443 kts | 291° |
| 2026-04-17 11:01 | 50.47043 | 11.10237 | 36234 ft | 442 kts | 291° |
| 2026-04-17 11:01 | 50.49033 | 11.01177 | 36247 ft | 443 kts | 291° |
| 2026-04-17 11:02 | 50.51036 | 10.92022 | 36201 ft | 440 kts | 291° |
| 2026-04-17 11:02 | 50.52029 | 10.87471 | 35826 ft | 442 kts | 291° |
| 2026-04-17 11:02 | 50.53023 | 10.82903 | 35186 ft | 442 kts | 291° |
| 2026-04-17 11:02 | 50.54024 | 10.78357 | 34588 ft | 438 kts | 292° |
| 2026-04-17 11:03 | 50.55045 | 10.73858 | 33929 ft | 435 kts | 293° |
| 2026-04-17 11:03 | 50.56068 | 10.69397 | 33255 ft | 433 kts | 292° |
| 2026-04-17 11:03 | 50.57088 | 10.64948 | 32604 ft | 431 kts | 292° |
| 2026-04-17 11:03 | 50.58084 | 10.60576 | 31953 ft | 429 kts | 292° |
| 2026-04-17 11:04 | 50.59098 | 10.56103 | 31307 ft | 427 kts | 292° |
| 2026-04-17 11:04 | 50.60078 | 10.51764 | 30692 ft | 425 kts | 291° |
| 2026-04-17 11:04 | 50.61076 | 10.47329 | 30045 ft | 424 kts | 291° |
| 2026-04-17 11:04 | 50.62046 | 10.43011 | 29356 ft | 421 kts | 291° |
| 2026-04-17 11:05 | 50.63020 | 10.38666 | 28670 ft | 419 kts | 291° |
| 2026-04-17 11:05 | 50.63977 | 10.34324 | 27989 ft | 414 kts | 289° |
| 2026-04-17 11:05 | 50.64421 | 10.29830 | 27287 ft | 418 kts | 271° |
| 2026-04-17 11:05 | 50.64077 | 10.25274 | 26673 ft | 419 kts | 260° |
| 2026-04-17 11:06 | 50.63551 | 10.20801 | 26044 ft | 411 kts | 267° |
| 2026-04-17 11:06 | 50.63410 | 10.16320 | 25438 ft | 408 kts | 272° |
| 2026-04-17 11:06 | 50.63423 | 10.11905 | 24856 ft | 407 kts | 273° |
| 2026-04-17 11:06 | 50.63483 | 10.07463 | 24264 ft | 406 kts | 274° |
| 2026-04-17 11:07 | 50.63555 | 10.03024 | 23677 ft | 405 kts | 274° |
| 2026-04-17 11:07 | 50.63635 | 9.98595 | 22997 ft | 403 kts | 274° |
| 2026-04-17 11:07 | 50.63720 | 9.94170 | 22339 ft | 402 kts | 274° |
| 2026-04-17 11:07 | 50.63809 | 9.89772 | 21688 ft | 401 kts | 274° |
| 2026-04-17 11:08 | 50.63902 | 9.85392 | 21122 ft | 400 kts | 274° |
| 2026-04-17 11:08 | 50.63998 | 9.81016 | 20538 ft | 396 kts | 273° |
| 2026-04-17 11:08 | 50.63873 | 9.76682 | 19985 ft | 395 kts | 263° |
| 2026-04-17 11:08 | 50.63237 | 9.72526 | 19454 ft | 395 kts | 253° |
| 2026-04-17 11:09 | 50.62092 | 9.68580 | 18927 ft | 395 kts | 242° |
| 2026-04-17 11:09 | 50.60493 | 9.65066 | 18415 ft | 396 kts | 231° |
| 2026-04-17 11:09 | 50.58569 | 9.61974 | 17831 ft | 395 kts | 226° |
| 2026-04-17 11:10 | 50.54520 | 9.56199 | 16692 ft | 391 kts | 224° |
| 2026-04-17 11:10 | 50.52796 | 9.53782 | 16228 ft | 389 kts | 224° |
| 2026-04-17 11:10 | 50.50773 | 9.50952 | 15640 ft | 378 kts | 224° |
| 2026-04-17 11:10 | 50.48853 | 9.48271 | 15124 ft | 361 kts | 224° |
| 2026-04-17 11:11 | 50.47018 | 9.45713 | 14617 ft | 346 kts | 224° |
| 2026-04-17 11:11 | 50.45251 | 9.43252 | 14132 ft | 333 kts | 224° |
| 2026-04-17 11:11 | 50.43546 | 9.40875 | 13590 ft | 323 kts | 224° |
| 2026-04-17 11:11 | 50.41869 | 9.38529 | 13098 ft | 325 kts | 223° |
| 2026-04-17 11:12 | 50.40174 | 9.36143 | 12592 ft | 329 kts | 223° |
| 2026-04-17 11:12 | 50.38502 | 9.33785 | 12050 ft | 317 kts | 223° |
| 2026-04-17 11:12 | 50.36897 | 9.31514 | 11581 ft | 304 kts | 223° |
| 2026-04-17 11:12 | 50.35365 | 9.29333 | 11171 ft | 291 kts | 224° |
| 2026-04-17 11:13 | 50.33897 | 9.27239 | 10744 ft | 280 kts | 223° |
| 2026-04-17 11:13 | 50.32487 | 9.25217 | 10348 ft | 270 kts | 223° |
| 2026-04-17 11:13 | 50.31131 | 9.23263 | 9945 ft | 261 kts | 224° |
| 2026-04-17 11:13 | 50.29815 | 9.21361 | 9428 ft | 255 kts | 223° |
| 2026-04-17 11:14 | 50.28524 | 9.19486 | 8886 ft | 251 kts | 223° |
| 2026-04-17 11:14 | 50.27258 | 9.17638 | 8401 ft | 246 kts | 223° |
| 2026-04-17 11:14 | 50.26037 | 9.15842 | 7936 ft | 241 kts | 223° |
| 2026-04-17 11:14 | 50.24833 | 9.14060 | 7467 ft | 236 kts | 223° |
| 2026-04-17 11:15 | 50.23656 | 9.12311 | 7028 ft | 231 kts | 223° |
| 2026-04-17 11:15 | 50.22507 | 9.10595 | 6577 ft | 227 kts | 223° |
| 2026-04-17 11:15 | 50.21381 | 9.08907 | 6108 ft | 222 kts | 224° |
| 2026-04-17 11:15 | 50.20278 | 9.07251 | 5658 ft | 218 kts | 224° |
| 2026-04-17 11:16 | 50.19221 | 9.05666 | 5185 ft | 215 kts | 224° |
| 2026-04-17 11:16 | 50.18153 | 9.04064 | 4717 ft | 211 kts | 223° |
| 2026-04-17 11:16 | 50.17455 | 9.03019 | 4421 ft | 209 kts | 224° |
| 2026-04-17 11:16 | 50.16081 | 9.00958 | 4094 ft | 203 kts | 223° |
| 2026-04-17 11:17 | 50.15396 | 8.99935 | 4110 ft | 210 kts | 224° |
| 2026-04-17 11:17 | 50.14326 | 8.98333 | 4007 ft | 210 kts | 223° |
| 2026-04-17 11:17 | 50.13316 | 8.96783 | 3981 ft | 194 kts | 230° |
| 2026-04-17 11:17 | 50.12717 | 8.94983 | 4004 ft | 185 kts | 249° |
| 2026-04-17 11:18 | 50.12247 | 8.93092 | 4014 ft | 188 kts | 247° |
| 2026-04-17 11:18 | 50.11765 | 8.91195 | 4004 ft | 188 kts | 248° |
| 2026-04-17 11:18 | 50.11300 | 8.89288 | 4002 ft | 188 kts | 248° |
| 2026-04-17 11:18 | 50.10849 | 8.87403 | 4001 ft | 188 kts | 249° |
| 2026-04-17 11:19 | 50.10396 | 8.85496 | 3954 ft | 190 kts | 248° |
| 2026-04-17 11:19 | 50.09932 | 8.83544 | 3681 ft | 192 kts | 248° |
| 2026-04-17 11:19 | 50.09474 | 8.81625 | 3464 ft | 184 kts | 248° |
| 2026-04-17 11:19 | 50.09034 | 8.79778 | 3196 ft | 180 kts | 249° |
| 2026-04-17 11:20 | 50.08600 | 8.77953 | 2943 ft | 180 kts | 249° |
| 2026-04-17 11:20 | 50.08163 | 8.76113 | 2733 ft | 179 kts | 249° |
| 2026-04-17 11:20 | 50.07744 | 8.74348 | 2468 ft | 168 kts | 249° |
| 2026-04-17 11:20 | 50.07351 | 8.72697 | 2249 ft | 162 kts | 249° |
| 2026-04-17 11:21 | 50.06960 | 8.71056 | 2075 ft | 162 kts | 249° |
| 2026-04-17 11:21 | 50.06576 | 8.69443 | 1820 ft | 155 kts | 249° |
| 2026-04-17 11:21 | 50.06211 | 8.67912 | 1616 ft | 147 kts | 249° |
| 2026-04-17 11:21 | 50.05865 | 8.66460 | 1421 ft | 141 kts | 249° |
| 2026-04-17 11:22 | 50.05522 | 8.65017 | 1254 ft | 143 kts | 249° |
| 2026-04-17 11:22 | 50.05173 | 8.63554 | 1054 ft | 145 kts | 249° |
| 2026-04-17 11:22 | 50.04824 | 8.62084 | 844 ft | 145 kts | 249° |
| 2026-04-17 11:22 | 50.04480 | 8.60627 | 663 ft | 144 kts | 250° |
| 2026-04-17 11:23 | 50.04133 | 8.59171 | 481 ft | 143 kts | 249° |
| 2026-04-17 11:23 | 50.03787 | 8.57727 | 370 ft | 137 kts | 249° |
| 2026-04-17 11:23 | 50.03506 | 8.56567 | 362 ft | 88 kts | 249° |
| 2026-04-17 11:23 | 50.03355 | 8.55933 | 359 ft | 40 kts | 249° |
| 2026-04-17 11:24 | 50.03310 | 8.55577 | 347 ft | 25 kts | 271° |
| 2026-04-17 11:24 | 50.03325 | 8.55393 | 353 ft | 16 kts | 280° |
| 2026-04-17 11:24 | 50.03345 | 8.55226 | 352 ft | 16 kts | 280° |
| 2026-04-17 11:24 | 50.03378 | 8.55155 | 352 ft | 8 kts | 356° |
| 2026-04-17 11:25 | 50.03423 | 8.55207 | 359 ft | 9 kts | 58° |
| 2026-04-17 11:25 | 50.03448 | 8.55290 | 358 ft | 9 kts | 68° |
| 2026-04-17 11:25 | 50.03471 | 8.55379 | 356 ft | 9 kts | 69° |
| 2026-04-17 11:25 | 50.03499 | 8.55497 | 360 ft | 16 kts | 70° |
| 2026-04-17 11:26 | 50.03554 | 8.55732 | 354 ft | 27 kts | 70° |
| 2026-04-17 11:26 | 50.03619 | 8.56004 | 360 ft | 27 kts | 69° |
| 2026-04-17 11:26 | 50.03684 | 8.56277 | 364 ft | 27 kts | 70° |
| 2026-04-17 11:26 | 50.03749 | 8.56549 | 364 ft | 27 kts | 69° |
| 2026-04-17 11:27 | 50.03815 | 8.56822 | 365 ft | 27 kts | 69° |
| 2026-04-17 11:27 | 50.03880 | 8.57094 | 366 ft | 27 kts | 70° |
| 2026-04-17 11:27 | 50.03944 | 8.57365 | 369 ft | 27 kts | 69° |
| 2026-04-17 11:27 | 50.04005 | 8.57621 | 376 ft | 23 kts | 70° |
| 2026-04-17 11:28 | 50.04059 | 8.57847 | 373 ft | 20 kts | 69° |
| 2026-04-17 11:28 | 50.04098 | 8.58006 | 376 ft | 14 kts | 70° |
| 2026-04-17 11:28 | 50.04124 | 8.58112 | 376 ft | 9 kts | 62° |
| 2026-04-17 11:28 | 50.04179 | 8.58163 | 374 ft | 10 kts | 23° |
| 2026-04-17 11:29 | 50.04238 | 8.58205 | 373 ft | 8 kts | 20° |
| 2026-04-17 11:29 | 50.04296 | 8.58196 | 374 ft | 9 kts | 341° |
| 2026-04-17 11:29 | 50.04353 | 8.58163 | 376 ft | 9 kts | 339° |
| 2026-04-17 11:29 | 50.04411 | 8.58130 | 376 ft | 9 kts | 340° |
| 2026-04-17 11:30 | 50.04479 | 8.58092 | 370 ft | 12 kts | 340° |
| 2026-04-17 11:30 | 50.04561 | 8.58045 | 371 ft | 15 kts | 339° |
| 2026-04-17 11:30 | 50.04648 | 8.57994 | 370 ft | 10 kts | 339° |
| 2026-04-17 11:30 | 50.04700 | 8.57960 | 368 ft | 7 kts | 324° |
| 2026-04-17 11:31 | 50.04702 | 8.57886 | 363 ft | 8 kts | 254° |
| 2026-04-17 11:31 | 50.04685 | 8.57806 | 368 ft | 8 kts | 251° |
| 2026-04-17 11:31 | 50.04665 | 8.57721 | 368 ft | 8 kts | 249° |
| 2026-04-17 11:31 | 50.04644 | 8.57634 | 369 ft | 9 kts | 249° |
| 2026-04-17 11:32 | 50.04622 | 8.57547 | 367 ft | 9 kts | 249° |
| 2026-04-17 11:32 | 50.04632 | 8.57477 | 368 ft | 5 kts | 338° |
| 2026-04-17 11:32 | 50.04667 | 8.57495 | 365 ft | 6 kts | 27° |
| 2026-04-17 11:32 | 50.04702 | 8.57525 | 369 ft | 4 kts | 29° |
| 2026-04-17 11:33 | 50.04718 | 8.57539 | 368 ft | 1 kts | 29° |
| 2026-04-17 11:33 | 50.04721 | 8.57541 | 367 ft | 0 kts | 29° |